sensor_id;sensor_type;location;lat;lon;timestamp;pressure;altitude;pressure_sealevel;temperature;humidity
44127;BME280;29786;50.798;7.302;2023-02-15T00:00:39;100540;;;1.32;100
44127;BME280;29786;50.798;7.302;2023-02-15T00:01:39;100550;;;1.34;100
44127;BME280;29786;50.798;7.302;2023-02-15T00:02:39;100540;;;1.29;100
44127;BME280;29786;50.798;7.302;2023-02-15T00:03:39;100540;;;1.23;100
44127;BME280;29786;50.798;7.302;2023-02-15T00:04:39;100540;;;1.3;100
44127;BME280;29786;50.798;7.302;2023-02-15T00:05:39;100530;;;1.35;100
44127;BME280;29786;50.798;7.302;2023-02-15T00:06:39;100530;;;1.39;100
44127;BME280;29786;50.798;7.302;2023-02-15T00:07:39;100530;;;1.4;100
44127;BME280;29786;50.798;7.302;2023-02-15T00:08:39;100530;;;1.36;100
44127;BME280;29786;50.798;7.302;2023-02-15T00:09:39;100530;;;1.34;100
44127;BME280;29786;50.798;7.302;2023-02-15T00:10:39;100530;;;1.28;100
44127;BME280;29786;50.798;7.302;2023-02-15T00:11:39;100530;;;1.34;100
44127;BME280;29786;50.798;7.302;2023-02-15T00:12:39;100530;;;1.37;100
44127;BME280;29786;50.798;7.302;2023-02-15T00:13:39;100530;;;1.25;100
44127;BME280;29786;50.798;7.302;2023-02-15T00:14:39;100540;;;1.34;100
44127;BME280;29786;50.798;7.302;2023-02-15T00:15:39;100530;;;1.25;100
44127;BME280;29786;50.798;7.302;2023-02-15T00:16:39;100540;;;1.23;100
44127;BME280;29786;50.798;7.302;2023-02-15T00:17:39;100530;;;1.26;100
44127;BME280;29786;50.798;7.302;2023-02-15T00:18:39;100530;;;1.19;100
44127;BME280;29786;50.798;7.302;2023-02-15T00:19:39;100530;;;1.17;100
44127;BME280;29786;50.798;7.302;2023-02-15T00:20:39;100530;;;1.22;100
44127;BME280;29786;50.798;7.302;2023-02-15T00:21:39;100530;;;1.22;100
44127;BME280;29786;50.798;7.302;2023-02-15T00:22:39;100530;;;1.21;100
44127;BME280;29786;50.798;7.302;2023-02-15T00:23:39;100530;;;1.16;100
44127;BME280;29786;50.798;7.302;2023-02-15T00:24:39;100530;;;1.21;100
44127;BME280;29786;50.798;7.302;2023-02-15T00:25:39;100530;;;1.28;100
44127;BME280;29786;50.798;7.302;2023-02-15T00:26:39;100520;;;1.35;100
44127;BME280;29786;50.798;7.302;2023-02-15T00:27:39;100520;;;1.39;100
44127;BME280;29786;50.798;7.302;2023-02-15T00:28:39;100520;;;1.42;100
44127;BME280;29786;50.798;7.302;2023-02-15T00:29:39;100520;;;1.41;100
44127;BME280;29786;50.798;7.302;2023-02-15T00:30:39;100520;;;1.38;100
44127;BME280;29786;50.798;7.302;2023-02-15T00:31:39;100520;;;1.4;100
44127;BME280;29786;50.798;7.302;2023-02-15T00:32:39;100520;;;1.39;100
44127;BME280;29786;50.798;7.302;2023-02-15T00:33:39;100520;;;1.38;100
44127;BME280;29786;50.798;7.302;2023-02-15T00:34:39;100520;;;1.3;100
44127;BME280;29786;50.798;7.302;2023-02-15T00:35:39;100510;;;1.34;100
44127;BME280;29786;50.798;7.302;2023-02-15T00:36:39;100520;;;1.26;100
44127;BME280;29786;50.798;7.302;2023-02-15T00:37:39;100510;;;1.28;100
44127;BME280;29786;50.798;7.302;2023-02-15T00:38:39;100510;;;1.26;100
44127;BME280;29786;50.798;7.302;2023-02-15T00:39:39;100510;;;1.29;100
44127;BME280;29786;50.798;7.302;2023-02-15T00:40:39;100510;;;1.29;100
44127;BME280;29786;50.798;7.302;2023-02-15T00:41:39;100510;;;1.31;100
44127;BME280;29786;50.798;7.302;2023-02-15T00:42:39;100510;;;1.34;100
44127;BME280;29786;50.798;7.302;2023-02-15T00:43:39;100520;;;1.35;100
44127;BME280;29786;50.798;7.302;2023-02-15T00:44:39;100510;;;1.3;100
44127;BME280;29786;50.798;7.302;2023-02-15T00:45:39;100510;;;1.32;100
44127;BME280;29786;50.798;7.302;2023-02-15T00:46:39;100510;;;1.28;100
44127;BME280;29786;50.798;7.302;2023-02-15T00:47:39;100510;;;1.25;100
44127;BME280;29786;50.798;7.302;2023-02-15T00:48:39;100510;;;1.27;100
44127;BME280;29786;50.798;7.302;2023-02-15T00:49:39;100510;;;1.31;100
44127;BME280;29786;50.798;7.302;2023-02-15T00:50:39;100510;;;1.36;100
44127;BME280;29786;50.798;7.302;2023-02-15T00:51:39;100510;;;1.29;100
44127;BME280;29786;50.798;7.302;2023-02-15T00:52:39;100510;;;1.26;100
44127;BME280;29786;50.798;7.302;2023-02-15T00:53:39;100510;;;1.23;100
44127;BME280;29786;50.798;7.302;2023-02-15T00:54:39;100510;;;1.23;100
44127;BME280;29786;50.798;7.302;2023-02-15T00:55:39;100510;;;1.27;100
44127;BME280;29786;50.798;7.302;2023-02-15T00:56:39;100510;;;1.26;100
44127;BME280;29786;50.798;7.302;2023-02-15T00:57:39;100510;;;1.21;100
44127;BME280;29786;50.798;7.302;2023-02-15T00:58:39;100510;;;1.15;100
44127;BME280;29786;50.798;7.302;2023-02-15T00:59:39;100510;;;1.1;100
44127;BME280;29786;50.798;7.302;2023-02-15T01:00:39;100510;;;1.13;100
44127;BME280;29786;50.798;7.302;2023-02-15T01:01:39;100510;;;1.24;100
44127;BME280;29786;50.798;7.302;2023-02-15T01:02:39;100510;;;1.24;100
44127;BME280;29786;50.798;7.302;2023-02-15T01:03:39;100510;;;1.2;100
44127;BME280;29786;50.798;7.302;2023-02-15T01:04:39;100510;;;1.24;100
44127;BME280;29786;50.798;7.302;2023-02-15T01:05:39;100510;;;1.1;100
44127;BME280;29786;50.798;7.302;2023-02-15T01:06:39;100510;;;1.14;100
44127;BME280;29786;50.798;7.302;2023-02-15T01:07:39;100510;;;1.21;100
44127;BME280;29786;50.798;7.302;2023-02-15T01:08:39;100510;;;1.07;100
44127;BME280;29786;50.798;7.302;2023-02-15T01:09:39;100510;;;1.01;100
44127;BME280;29786;50.798;7.302;2023-02-15T01:10:39;100510;;;0.95;100
44127;BME280;29786;50.798;7.302;2023-02-15T01:11:39;100520;;;0.99;100
44127;BME280;29786;50.798;7.302;2023-02-15T01:12:39;100510;;;0.93;100
44127;BME280;29786;50.798;7.302;2023-02-15T01:13:39;100510;;;0.96;100
44127;BME280;29786;50.798;7.302;2023-02-15T01:14:39;100510;;;0.93;100
44127;BME280;29786;50.798;7.302;2023-02-15T01:15:39;100510;;;0.98;100
44127;BME280;29786;50.798;7.302;2023-02-15T01:16:39;100520;;;0.92;100
44127;BME280;29786;50.798;7.302;2023-02-15T01:17:39;100520;;;1;100
44127;BME280;29786;50.798;7.302;2023-02-15T01:18:39;100510;;;0.93;100
44127;BME280;29786;50.798;7.302;2023-02-15T01:19:39;100510;;;0.94;100
44127;BME280;29786;50.798;7.302;2023-02-15T01:20:39;100510;;;0.98;100
44127;BME280;29786;50.798;7.302;2023-02-15T01:21:39;100500;;;1.03;100
44127;BME280;29786;50.798;7.302;2023-02-15T01:22:39;100510;;;1.02;100
44127;BME280;29786;50.798;7.302;2023-02-15T01:23:39;100500;;;1.01;100
44127;BME280;29786;50.798;7.302;2023-02-15T01:24:39;100510;;;1;100
44127;BME280;29786;50.798;7.302;2023-02-15T01:25:39;100500;;;1.01;100
44127;BME280;29786;50.798;7.302;2023-02-15T01:26:39;100500;;;1.04;100
44127;BME280;29786;50.798;7.302;2023-02-15T01:27:39;100510;;;1.04;100
44127;BME280;29786;50.798;7.302;2023-02-15T01:28:39;100500;;;1;100
44127;BME280;29786;50.798;7.302;2023-02-15T01:29:39;100500;;;1.02;100
44127;BME280;29786;50.798;7.302;2023-02-15T01:30:39;100500;;;1.01;100
44127;BME280;29786;50.798;7.302;2023-02-15T01:31:39;100500;;;1.12;100
44127;BME280;29786;50.798;7.302;2023-02-15T01:32:39;100500;;;1.11;100
44127;BME280;29786;50.798;7.302;2023-02-15T01:33:39;100500;;;1.12;100
44127;BME280;29786;50.798;7.302;2023-02-15T01:34:39;100490;;;1.08;100
44127;BME280;29786;50.798;7.302;2023-02-15T01:35:39;100500;;;1.09;100
44127;BME280;29786;50.798;7.302;2023-02-15T01:36:39;100490;;;1.05;100
44127;BME280;29786;50.798;7.302;2023-02-15T01:37:39;100490;;;1.04;100
44127;BME280;29786;50.798;7.302;2023-02-15T01:38:39;100490;;;0.93;100
44127;BME280;29786;50.798;7.302;2023-02-15T01:39:39;100490;;;0.95;100
44127;BME280;29786;50.798;7.302;2023-02-15T01:40:39;100490;;;0.86;100
44127;BME280;29786;50.798;7.302;2023-02-15T01:41:39;100490;;;0.86;100
44127;BME280;29786;50.798;7.302;2023-02-15T01:42:39;100490;;;0.84;100
44127;BME280;29786;50.798;7.302;2023-02-15T01:43:40;100480;;;0.85;100
44127;BME280;29786;50.798;7.302;2023-02-15T01:44:47;100490;;;0.85;100
44127;BME280;29786;50.798;7.302;2023-02-15T01:45:39;100490;;;0.74;100
44127;BME280;29786;50.798;7.302;2023-02-15T01:46:40;100490;;;0.82;100
44127;BME280;29786;50.798;7.302;2023-02-15T01:47:47;100490;;;0.78;100
44127;BME280;29786;50.798;7.302;2023-02-15T01:48:42;100480;;;0.78;100
44127;BME280;29786;50.798;7.302;2023-02-15T01:49:39;100480;;;0.79;100
44127;BME280;29786;50.798;7.302;2023-02-15T01:50:41;100480;;;0.77;100
44127;BME280;29786;50.798;7.302;2023-02-15T01:51:39;100470;;;0.76;100
44127;BME280;29786;50.798;7.302;2023-02-15T01:52:40;100470;;;0.73;100
44127;BME280;29786;50.798;7.302;2023-02-15T01:53:42;100480;;;0.78;100
44127;BME280;29786;50.798;7.302;2023-02-15T01:54:39;100480;;;0.81;100
44127;BME280;29786;50.798;7.302;2023-02-15T01:55:40;100470;;;0.73;100
44127;BME280;29786;50.798;7.302;2023-02-15T01:56:39;100480;;;0.64;100
44127;BME280;29786;50.798;7.302;2023-02-15T01:57:39;100470;;;0.66;100
44127;BME280;29786;50.798;7.302;2023-02-15T01:58:39;100480;;;0.69;100
44127;BME280;29786;50.798;7.302;2023-02-15T01:59:39;100480;;;0.69;100
44127;BME280;29786;50.798;7.302;2023-02-15T02:00:39;100480;;;0.7;100
44127;BME280;29786;50.798;7.302;2023-02-15T02:01:39;100480;;;0.67;100
44127;BME280;29786;50.798;7.302;2023-02-15T02:02:40;100470;;;0.73;100
44127;BME280;29786;50.798;7.302;2023-02-15T02:03:56;100470;;;0.76;100
44127;BME280;29786;50.798;7.302;2023-02-15T02:04:41;100470;;;0.68;100
44127;BME280;29786;50.798;7.302;2023-02-15T02:05:39;100470;;;0.65;100
44127;BME280;29786;50.798;7.302;2023-02-15T02:06:39;100470;;;0.68;100
44127;BME280;29786;50.798;7.302;2023-02-15T02:07:41;100470;;;0.56;100
44127;BME280;29786;50.798;7.302;2023-02-15T02:08:39;100470;;;0.58;100
44127;BME280;29786;50.798;7.302;2023-02-15T02:09:39;100470;;;0.64;100
44127;BME280;29786;50.798;7.302;2023-02-15T02:10:39;100470;;;0.58;100
44127;BME280;29786;50.798;7.302;2023-02-15T02:11:39;100470;;;0.57;100
44127;BME280;29786;50.798;7.302;2023-02-15T02:12:39;100460;;;0.58;100
44127;BME280;29786;50.798;7.302;2023-02-15T02:13:39;100460;;;0.6;100
44127;BME280;29786;50.798;7.302;2023-02-15T02:14:39;100460;;;0.61;100
44127;BME280;29786;50.798;7.302;2023-02-15T02:15:40;100460;;;0.61;100
44127;BME280;29786;50.798;7.302;2023-02-15T02:16:57;100460;;;0.55;100
44127;BME280;29786;50.798;7.302;2023-02-15T02:18:12;100460;;;0.62;100
44127;BME280;29786;50.798;7.302;2023-02-15T02:18:46;100460;;;0.63;100
44127;BME280;29786;50.798;7.302;2023-02-15T02:20:01;100460;;;0.51;100
44127;BME280;29786;50.798;7.302;2023-02-15T02:20:47;100460;;;0.52;100
44127;BME280;29786;50.798;7.302;2023-02-15T02:21:51;100460;;;0.49;100
44127;BME280;29786;50.798;7.302;2023-02-15T02:22:46;100460;;;0.45;100
44127;BME280;29786;50.798;7.302;2023-02-15T02:23:44;100460;;;0.49;100
44127;BME280;29786;50.798;7.302;2023-02-15T02:24:49;100460;;;0.51;100
44127;BME280;29786;50.798;7.302;2023-02-15T02:27:39;100460;;;0.55;100
44127;BME280;29786;50.798;7.302;2023-02-15T02:27:47;100460;;;0.5;100
44127;BME280;29786;50.798;7.302;2023-02-15T02:28:49;100450;;;0.63;100
44127;BME280;29786;50.798;7.302;2023-02-15T02:29:45;100450;;;0.61;100
44127;BME280;29786;50.798;7.302;2023-02-15T02:30:47;100440;;;0.62;100
44127;BME280;29786;50.798;7.302;2023-02-15T02:34:13;100450;;;0.57;100
44127;BME280;29786;50.798;7.302;2023-02-15T02:34:42;100450;;;0.57;100
44127;BME280;29786;50.798;7.302;2023-02-15T02:36:42;100440;;;0.5;100
44127;BME280;29786;50.798;7.302;2023-02-15T02:37:50;100440;;;0.5;100
44127;BME280;29786;50.798;7.302;2023-02-15T02:38:42;100440;;;0.45;100
44127;BME280;29786;50.798;7.302;2023-02-15T02:40:03;100440;;;0.4;100
44127;BME280;29786;50.798;7.302;2023-02-15T02:41:13;100440;;;0.36;100
44127;BME280;29786;50.798;7.302;2023-02-15T02:41:56;100440;;;0.37;100
44127;BME280;29786;50.798;7.302;2023-02-15T02:42:40;100440;;;0.37;100
44127;BME280;29786;50.798;7.302;2023-02-15T02:43:44;100430;;;0.41;100
44127;BME280;29786;50.798;7.302;2023-02-15T02:44:43;100440;;;0.41;100
44127;BME280;29786;50.798;7.302;2023-02-15T02:45:42;100440;;;0.37;100
44127;BME280;29786;50.798;7.302;2023-02-15T02:46:44;100440;;;0.3;100
44127;BME280;29786;50.798;7.302;2023-02-15T02:47:40;100440;;;0.26;100
44127;BME280;29786;50.798;7.302;2023-02-15T02:48:39;100430;;;0.19;100
44127;BME280;29786;50.798;7.302;2023-02-15T02:49:40;100440;;;0.29;100
44127;BME280;29786;50.798;7.302;2023-02-15T02:50:39;100440;;;0.22;100
44127;BME280;29786;50.798;7.302;2023-02-15T02:51:39;100440;;;0.25;100
44127;BME280;29786;50.798;7.302;2023-02-15T02:52:42;100430;;;0.26;100
44127;BME280;29786;50.798;7.302;2023-02-15T02:53:39;100440;;;0.27;100
44127;BME280;29786;50.798;7.302;2023-02-15T02:54:39;100430;;;0.32;100
44127;BME280;29786;50.798;7.302;2023-02-15T02:55:41;100440;;;0.36;100
44127;BME280;29786;50.798;7.302;2023-02-15T02:56:41;100430;;;0.32;100
44127;BME280;29786;50.798;7.302;2023-02-15T02:57:41;100430;;;0.29;100
44127;BME280;29786;50.798;7.302;2023-02-15T02:58:40;100430;;;0.33;100
44127;BME280;29786;50.798;7.302;2023-02-15T02:59:40;100430;;;0.28;100
44127;BME280;29786;50.798;7.302;2023-02-15T03:01:41;100430;;;0.37;100
44127;BME280;29786;50.798;7.302;2023-02-15T03:01:45;100430;;;0.38;100
44127;BME280;29786;50.798;7.302;2023-02-15T03:02:40;100430;;;0.43;100
44127;BME280;29786;50.798;7.302;2023-02-15T03:04:13;100420;;;0.44;100
44127;BME280;29786;50.798;7.302;2023-02-15T03:04:40;100430;;;0.38;100
44127;BME280;29786;50.798;7.302;2023-02-15T03:05:40;100420;;;0.35;100
44127;BME280;29786;50.798;7.302;2023-02-15T03:06:40;100420;;;0.33;100
44127;BME280;29786;50.798;7.302;2023-02-15T03:07:39;100420;;;0.35;100
44127;BME280;29786;50.798;7.302;2023-02-15T03:08:41;100410;;;0.41;100
44127;BME280;29786;50.798;7.302;2023-02-15T03:09:40;100410;;;0.36;100
44127;BME280;29786;50.798;7.302;2023-02-15T03:10:39;100410;;;0.33;100
44127;BME280;29786;50.798;7.302;2023-02-15T03:11:40;100410;;;0.32;100
44127;BME280;29786;50.798;7.302;2023-02-15T03:12:39;100410;;;0.27;100
44127;BME280;29786;50.798;7.302;2023-02-15T03:13:39;100410;;;0.29;100
44127;BME280;29786;50.798;7.302;2023-02-15T03:14:40;100410;;;0.34;100
44127;BME280;29786;50.798;7.302;2023-02-15T03:15:39;100410;;;0.31;100
44127;BME280;29786;50.798;7.302;2023-02-15T03:16:39;100410;;;0.3;100
44127;BME280;29786;50.798;7.302;2023-02-15T03:17:40;100410;;;0.25;100
44127;BME280;29786;50.798;7.302;2023-02-15T03:18:41;100410;;;0.31;100
44127;BME280;29786;50.798;7.302;2023-02-15T03:19:39;100410;;;0.32;100
44127;BME280;29786;50.798;7.302;2023-02-15T03:20:39;100410;;;0.31;100
44127;BME280;29786;50.798;7.302;2023-02-15T03:21:41;100410;;;0.26;100
44127;BME280;29786;50.798;7.302;2023-02-15T03:22:41;100410;;;0.28;100
44127;BME280;29786;50.798;7.302;2023-02-15T03:23:39;100410;;;0.41;100
44127;BME280;29786;50.798;7.302;2023-02-15T03:24:41;100400;;;0.38;100
44127;BME280;29786;50.798;7.302;2023-02-15T03:25:40;100400;;;0.32;100
44127;BME280;29786;50.798;7.302;2023-02-15T03:26:39;100400;;;0.25;100
44127;BME280;29786;50.798;7.302;2023-02-15T03:27:42;100400;;;0.3;100
44127;BME280;29786;50.798;7.302;2023-02-15T03:28:41;100400;;;0.22;100
44127;BME280;29786;50.798;7.302;2023-02-15T03:29:39;100400;;;0.24;100
44127;BME280;29786;50.798;7.302;2023-02-15T03:30:39;100400;;;0.17;100
44127;BME280;29786;50.798;7.302;2023-02-15T03:31:40;100390;;;0.11;100
44127;BME280;29786;50.798;7.302;2023-02-15T03:32:39;100400;;;0.14;100
44127;BME280;29786;50.798;7.302;2023-02-15T03:33:40;100390;;;0.12;100
44127;BME280;29786;50.798;7.302;2023-02-15T03:34:39;100400;;;0.11;100
44127;BME280;29786;50.798;7.302;2023-02-15T03:35:45;100390;;;0.13;100
44127;BME280;29786;50.798;7.302;2023-02-15T03:36:49;100390;;;0.16;100
44127;BME280;29786;50.798;7.302;2023-02-15T03:37:41;100390;;;0.08;100
44127;BME280;29786;50.798;7.302;2023-02-15T03:38:43;100390;;;0.04;100
44127;BME280;29786;50.798;7.302;2023-02-15T03:39:42;100390;;;0.07;100
44127;BME280;29786;50.798;7.302;2023-02-15T03:40:41;100390;;;0.08;100
44127;BME280;29786;50.798;7.302;2023-02-15T03:41:41;100390;;;0.05;100
44127;BME280;29786;50.798;7.302;2023-02-15T03:42:39;100390;;;0;100
44127;BME280;29786;50.798;7.302;2023-02-15T03:43:56;100380;;;0.02;100
44127;BME280;29786;50.798;7.302;2023-02-15T03:44:43;100380;;;0.06;100
44127;BME280;29786;50.798;7.302;2023-02-15T03:45:39;100380;;;0.15;100
44127;BME280;29786;50.798;7.302;2023-02-15T03:46:43;100380;;;0.16;100
44127;BME280;29786;50.798;7.302;2023-02-15T03:47:40;100380;;;0.22;100
44127;BME280;29786;50.798;7.302;2023-02-15T03:48:40;100390;;;0.23;100
44127;BME280;29786;50.798;7.302;2023-02-15T03:49:45;100390;;;0.13;100
44127;BME280;29786;50.798;7.302;2023-02-15T03:50:39;100390;;;0.07;100
44127;BME280;29786;50.798;7.302;2023-02-15T03:51:40;100380;;;0.11;100
44127;BME280;29786;50.798;7.302;2023-02-15T03:52:39;100380;;;0.1;100
44127;BME280;29786;50.798;7.302;2023-02-15T03:53:39;100380;;;0.16;100
44127;BME280;29786;50.798;7.302;2023-02-15T03:54:39;100390;;;0.19;100
44127;BME280;29786;50.798;7.302;2023-02-15T03:55:39;100390;;;0.18;100
44127;BME280;29786;50.798;7.302;2023-02-15T03:56:40;100390;;;0.1;100
44127;BME280;29786;50.798;7.302;2023-02-15T03:57:39;100390;;;0.09;100
44127;BME280;29786;50.798;7.302;2023-02-15T03:58:39;100390;;;0.1;100
44127;BME280;29786;50.798;7.302;2023-02-15T03:59:39;100390;;;0.11;100
44127;BME280;29786;50.798;7.302;2023-02-15T04:00:40;100390;;;0.09;100
44127;BME280;29786;50.798;7.302;2023-02-15T04:01:42;100390;;;0.11;100
44127;BME280;29786;50.798;7.302;2023-02-15T04:02:44;100390;;;0.08;100
44127;BME280;29786;50.798;7.302;2023-02-15T04:03:40;100390;;;0.14;100
44127;BME280;29786;50.798;7.302;2023-02-15T04:04:41;100380;;;0.04;100
44127;BME280;29786;50.798;7.302;2023-02-15T04:05:39;100390;;;-0.02;100
44127;BME280;29786;50.798;7.302;2023-02-15T04:06:39;100390;;;0.03;100
44127;BME280;29786;50.798;7.302;2023-02-15T04:07:39;100390;;;0.07;100
44127;BME280;29786;50.798;7.302;2023-02-15T04:08:39;100390;;;0.07;100
44127;BME280;29786;50.798;7.302;2023-02-15T04:09:39;100390;;;0.07;100
44127;BME280;29786;50.798;7.302;2023-02-15T04:10:39;100380;;;0.07;100
44127;BME280;29786;50.798;7.302;2023-02-15T04:11:39;100380;;;0.07;100
44127;BME280;29786;50.798;7.302;2023-02-15T04:12:39;100390;;;0.11;100
44127;BME280;29786;50.798;7.302;2023-02-15T04:13:39;100390;;;0.11;100
44127;BME280;29786;50.798;7.302;2023-02-15T04:14:39;100380;;;0.09;100
44127;BME280;29786;50.798;7.302;2023-02-15T04:15:39;100390;;;0.05;100
44127;BME280;29786;50.798;7.302;2023-02-15T04:16:39;100390;;;0.04;100
44127;BME280;29786;50.798;7.302;2023-02-15T04:17:39;100390;;;0.06;100
44127;BME280;29786;50.798;7.302;2023-02-15T04:18:40;100390;;;0.04;100
44127;BME280;29786;50.798;7.302;2023-02-15T04:19:39;100380;;;0.1;100
44127;BME280;29786;50.798;7.302;2023-02-15T04:20:40;100380;;;0.06;100
44127;BME280;29786;50.798;7.302;2023-02-15T04:21:39;100380;;;0.03;100
44127;BME280;29786;50.798;7.302;2023-02-15T04:22:39;100380;;;0.06;100
44127;BME280;29786;50.798;7.302;2023-02-15T04:23:39;100380;;;-0.03;100
44127;BME280;29786;50.798;7.302;2023-02-15T04:24:39;100380;;;0.05;100
44127;BME280;29786;50.798;7.302;2023-02-15T04:25:39;100380;;;0.1;100
44127;BME280;29786;50.798;7.302;2023-02-15T04:26:39;100380;;;0.07;100
44127;BME280;29786;50.798;7.302;2023-02-15T04:27:40;100380;;;0.07;100
44127;BME280;29786;50.798;7.302;2023-02-15T04:28:39;100380;;;-0.01;100
44127;BME280;29786;50.798;7.302;2023-02-15T04:29:39;100380;;;-0.03;100
44127;BME280;29786;50.798;7.302;2023-02-15T04:30:39;100380;;;0.04;100
44127;BME280;29786;50.798;7.302;2023-02-15T04:31:39;100380;;;0;100
44127;BME280;29786;50.798;7.302;2023-02-15T04:32:39;100380;;;-0.02;100
44127;BME280;29786;50.798;7.302;2023-02-15T04:33:39;100380;;;-0.02;100
44127;BME280;29786;50.798;7.302;2023-02-15T04:34:39;100380;;;-0.07;100
44127;BME280;29786;50.798;7.302;2023-02-15T04:35:39;100380;;;-0.1;100
44127;BME280;29786;50.798;7.302;2023-02-15T04:36:39;100380;;;-0.08;100
44127;BME280;29786;50.798;7.302;2023-02-15T04:37:39;100380;;;-0.05;100
44127;BME280;29786;50.798;7.302;2023-02-15T04:38:39;100380;;;-0.01;100
44127;BME280;29786;50.798;7.302;2023-02-15T04:39:39;100370;;;-0.03;100
44127;BME280;29786;50.798;7.302;2023-02-15T04:40:39;100370;;;-0.04;100
44127;BME280;29786;50.798;7.302;2023-02-15T04:41:39;100370;;;0;100
44127;BME280;29786;50.798;7.302;2023-02-15T04:42:39;100370;;;0;100
44127;BME280;29786;50.798;7.302;2023-02-15T04:43:39;100370;;;-0.02;100
44127;BME280;29786;50.798;7.302;2023-02-15T04:44:39;100370;;;-0.05;100
44127;BME280;29786;50.798;7.302;2023-02-15T04:45:39;100380;;;-0.06;100
44127;BME280;29786;50.798;7.302;2023-02-15T04:46:39;100380;;;-0.02;100
44127;BME280;29786;50.798;7.302;2023-02-15T04:47:39;100380;;;-0.05;100
44127;BME280;29786;50.798;7.302;2023-02-15T04:48:39;100380;;;-0.03;100
44127;BME280;29786;50.798;7.302;2023-02-15T04:49:39;100380;;;-0.08;100
44127;BME280;29786;50.798;7.302;2023-02-15T04:50:39;100380;;;-0.13;100
44127;BME280;29786;50.798;7.302;2023-02-15T04:51:39;100380;;;-0.11;100
44127;BME280;29786;50.798;7.302;2023-02-15T04:52:39;100380;;;-0.14;100
44127;BME280;29786;50.798;7.302;2023-02-15T04:53:39;100380;;;-0.11;100
44127;BME280;29786;50.798;7.302;2023-02-15T04:54:39;100380;;;-0.14;100
44127;BME280;29786;50.798;7.302;2023-02-15T04:55:39;100380;;;-0.1;100
44127;BME280;29786;50.798;7.302;2023-02-15T04:56:39;100380;;;-0.07;100
44127;BME280;29786;50.798;7.302;2023-02-15T04:57:39;100380;;;-0.21;100
44127;BME280;29786;50.798;7.302;2023-02-15T04:58:39;100380;;;-0.1;100
44127;BME280;29786;50.798;7.302;2023-02-15T04:59:39;100380;;;-0.2;100
44127;BME280;29786;50.798;7.302;2023-02-15T05:00:39;100380;;;-0.22;100
44127;BME280;29786;50.798;7.302;2023-02-15T05:01:39;100380;;;-0.19;100
44127;BME280;29786;50.798;7.302;2023-02-15T05:02:39;100380;;;-0.15;100
44127;BME280;29786;50.798;7.302;2023-02-15T05:03:39;100380;;;-0.14;100
44127;BME280;29786;50.798;7.302;2023-02-15T05:04:39;100380;;;-0.12;100
44127;BME280;29786;50.798;7.302;2023-02-15T05:05:39;100380;;;-0.19;100
44127;BME280;29786;50.798;7.302;2023-02-15T05:06:39;100380;;;-0.13;100
44127;BME280;29786;50.798;7.302;2023-02-15T05:07:39;100380;;;-0.14;100
44127;BME280;29786;50.798;7.302;2023-02-15T05:08:39;100380;;;-0.1;100
44127;BME280;29786;50.798;7.302;2023-02-15T05:09:39;100380;;;-0.15;100
44127;BME280;29786;50.798;7.302;2023-02-15T05:10:39;100380;;;-0.14;100
44127;BME280;29786;50.798;7.302;2023-02-15T05:11:39;100380;;;-0.18;100
44127;BME280;29786;50.798;7.302;2023-02-15T05:12:39;100370;;;-0.16;100
44127;BME280;29786;50.798;7.302;2023-02-15T05:13:39;100380;;;-0.11;100
44127;BME280;29786;50.798;7.302;2023-02-15T05:14:39;100380;;;-0.09;100
44127;BME280;29786;50.798;7.302;2023-02-15T05:15:39;100380;;;-0.06;100
44127;BME280;29786;50.798;7.302;2023-02-15T05:16:39;100380;;;-0.06;100
44127;BME280;29786;50.798;7.302;2023-02-15T05:17:39;100380;;;-0.07;100
44127;BME280;29786;50.798;7.302;2023-02-15T05:18:39;100380;;;-0.05;100
44127;BME280;29786;50.798;7.302;2023-02-15T05:19:39;100380;;;-0.11;100
44127;BME280;29786;50.798;7.302;2023-02-15T05:20:39;100380;;;-0.16;100
44127;BME280;29786;50.798;7.302;2023-02-15T05:21:39;100380;;;-0.2;100
44127;BME280;29786;50.798;7.302;2023-02-15T05:22:39;100380;;;-0.19;100
44127;BME280;29786;50.798;7.302;2023-02-15T05:23:39;100380;;;-0.22;100
44127;BME280;29786;50.798;7.302;2023-02-15T05:24:39;100390;;;-0.19;100
44127;BME280;29786;50.798;7.302;2023-02-15T05:25:39;100380;;;-0.17;100
44127;BME280;29786;50.798;7.302;2023-02-15T05:26:39;100380;;;-0.13;100
44127;BME280;29786;50.798;7.302;2023-02-15T05:27:39;100380;;;-0.14;100
44127;BME280;29786;50.798;7.302;2023-02-15T05:28:39;100370;;;-0.14;100
44127;BME280;29786;50.798;7.302;2023-02-15T05:29:39;100370;;;-0.17;100
44127;BME280;29786;50.798;7.302;2023-02-15T05:30:39;100370;;;-0.19;100
44127;BME280;29786;50.798;7.302;2023-02-15T05:31:39;100370;;;-0.2;100
44127;BME280;29786;50.798;7.302;2023-02-15T05:32:39;100370;;;-0.25;100
44127;BME280;29786;50.798;7.302;2023-02-15T05:33:39;100370;;;-0.24;100
44127;BME280;29786;50.798;7.302;2023-02-15T05:34:39;100360;;;-0.19;100
44127;BME280;29786;50.798;7.302;2023-02-15T05:35:39;100360;;;-0.19;100
44127;BME280;29786;50.798;7.302;2023-02-15T05:36:39;100360;;;-0.19;100
44127;BME280;29786;50.798;7.302;2023-02-15T05:37:39;100360;;;-0.23;100
44127;BME280;29786;50.798;7.302;2023-02-15T05:38:39;100360;;;-0.24;100
44127;BME280;29786;50.798;7.302;2023-02-15T05:39:39;100360;;;-0.2;100
44127;BME280;29786;50.798;7.302;2023-02-15T05:40:39;100360;;;-0.2;100
44127;BME280;29786;50.798;7.302;2023-02-15T05:41:39;100360;;;-0.21;100
44127;BME280;29786;50.798;7.302;2023-02-15T05:42:39;100350;;;-0.2;100
44127;BME280;29786;50.798;7.302;2023-02-15T05:43:39;100350;;;-0.25;100
44127;BME280;29786;50.798;7.302;2023-02-15T05:44:39;100360;;;-0.22;100